Time;durP1;ratioP1;P1;durP2;ratioP2;P2;SDS_P1;SDS_P2;PMS_P1;PMS_P2;Temp;Humidity;BMP_temperature;BMP_pressure;BME280_temperature;BME280_humidity;BME280_pressure;Samples;Min_cycle;Max_cycle;Signal;HPM_P1;HPM_P2
2022/03/26 00:00:13;;;;;;;21.17;13.50;;;;;;;;;;5050847;28;20304;-71
2022/03/26 00:02:38;;;;;;;23.30;12.97;;;;;;;;;;5048670;28;20256;-70
2022/03/26 00:05:04;;;;;;;26.07;13.73;;;;;;;;;;5043152;28;20174;-70
2022/03/26 00:07:29;;;;;;;23.13;13.67;;;;;;;;;;5041957;28;20952;-71
2022/03/26 00:09:54;;;;;;;24.83;13.50;;;;;;;;;;5043044;28;20174;-70
2022/03/26 00:12:20;;;;;;;22.57;12.60;;;;;;;;;;5048236;28;20173;-71
2022/03/26 00:14:45;;;;;;;32.20;15.53;;;;;;;;;;5044265;28;20182;-68
2022/03/26 00:17:10;;;;;;;24.80;14.00;;;;;;;;;;5049974;28;20205;-70
2022/03/26 00:19:35;;;;;;;28.43;13.53;;;;;;;;;;5051315;28;20393;-70
2022/03/26 00:22:00;;;;;;;22.60;13.30;;;;;;;;;;5049907;28;20719;-70
2022/03/26 00:24:26;;;;;;;23.80;14.47;;;;;;;;;;5048471;28;20235;-70
2022/03/26 00:26:52;;;;;;;20.73;13.03;;;;;;;;;;5048834;28;20169;-70
2022/03/26 00:29:17;;;;;;;27.87;13.90;;;;;;;;;;5049599;28;20229;-70
2022/03/26 00:31:42;;;;;;;27.00;14.67;;;;;;;;;;5048134;28;20169;-70
2022/03/26 00:34:08;;;;;;;24.57;13.63;;;;;;;;;;5050742;28;20186;-70
2022/03/26 00:36:34;;;;;;;24.03;12.77;;;;;;;;;;5051226;28;20266;-69
2022/03/26 00:38:59;;;;;;;25.13;15.20;;;;;;;;;;5042982;28;20663;-69
2022/03/26 00:41:24;;;;;;;25.37;13.60;;;;;;;;;;5052527;28;20615;-67
2022/03/26 00:43:50;;;;;;;27.17;14.13;;;;;;;;;;5047341;28;20161;-69
2022/03/26 00:46:15;;;;;;;30.30;14.97;;;;;;;;;;5042941;28;20259;-71
2022/03/26 00:48:40;;;;;;;30.40;15.23;;;;;;;;;;5056228;28;20194;-70
2022/03/26 00:51:06;;;;;;;26.27;15.23;;;;;;;;;;5053182;28;20208;-70
2022/03/26 00:53:31;;;;;;;25.57;15.03;;;;;;;;;;5050539;28;20721;-68
2022/03/26 00:55:56;;;;;;;25.70;15.00;;;;;;;;;;5046133;28;20759;-70
2022/03/26 00:58:21;;;;;;;29.97;14.17;;;;;;;;;;5049010;28;20612;-69
2022/03/26 01:00:46;;;;;;;29.60;15.83;;;;;;;;;;5050917;28;20250;-70
2022/03/26 01:03:12;;;;;;;24.57;14.57;;;;;;;;;;5050916;28;20165;-69
2022/03/26 01:05:38;;;;;;;25.17;13.47;;;;;;;;;;5049608;28;20162;-69
2022/03/26 01:08:03;;;;;;;25.27;13.43;;;;;;;;;;5045823;28;20679;-70
2022/03/26 01:10:29;;;;;;;27.07;14.73;;;;;;;;;;5042542;28;20216;-69
2022/03/26 01:12:54;;;;;;;23.50;15.27;;;;;;;;;;5042185;28;20353;-68
2022/03/26 01:15:20;;;;;;;26.47;15.00;;;;;;;;;;5039304;28;20178;-71
2022/03/26 01:17:45;;;;;;;25.40;13.40;;;;;;;;;;5052821;28;20198;-67
2022/03/26 01:20:11;;;;;;;27.47;14.57;;;;;;;;;;5049390;28;21663;-69
2022/03/26 01:22:36;;;;;;;30.77;15.23;;;;;;;;;;5042239;28;20182;-68
2022/03/26 01:25:02;;;;;;;24.63;15.03;;;;;;;;;;5058858;28;20174;-68
2022/03/26 01:27:27;;;;;;;28.00;14.40;;;;;;;;;;5057084;28;20201;-69
2022/03/26 01:29:52;;;;;;;22.77;14.33;;;;;;;;;;5051176;28;20173;-68
2022/03/26 01:32:17;;;;;;;23.57;14.80;;;;;;;;;;5054281;28;20209;-68
2022/03/26 01:34:43;;;;;;;30.10;14.13;;;;;;;;;;5052995;28;20177;-69
2022/03/26 01:37:09;;;;;;;28.83;15.07;;;;;;;;;;5045809;28;20583;-67
2022/03/26 01:39:34;;;;;;;26.43;15.17;;;;;;;;;;5050555;28;20201;-69
2022/03/26 01:42:06;;;;;;;31.73;16.07;;;;;;;;;;5050191;28;20166;-69
2022/03/26 01:44:32;;;;;;;32.67;17.27;;;;;;;;;;5042607;28;20174;-69
2022/03/26 01:46:58;;;;;;;31.97;17.03;;;;;;;;;;5046404;28;20527;-69
2022/03/26 01:49:23;;;;;;;29.77;16.07;;;;;;;;;;5051510;28;20186;-69
2022/03/26 01:51:49;;;;;;;27.93;16.50;;;;;;;;;;5049780;28;20742;-70
2022/03/26 01:54:15;;;;;;;26.30;16.90;;;;;;;;;;5051167;28;20182;-69
2022/03/26 01:56:40;;;;;;;31.17;16.67;;;;;;;;;;5049554;28;20213;-69
2022/03/26 01:59:06;;;;;;;27.63;16.57;;;;;;;;;;5052380;28;20201;-70
2022/03/26 02:01:33;;;;;;;30.57;18.80;;;;;;;;;;5047904;28;20200;-70
2022/03/26 02:03:58;;;;;;;29.67;17.93;;;;;;;;;;5048872;28;20172;-69
2022/03/26 02:06:28;;;;;;;35.80;20.27;;;;;;;;;;5048983;28;20182;-69
2022/03/26 02:08:53;;;;;;;34.70;18.27;;;;;;;;;;5049347;28;20573;-69
2022/03/26 02:11:18;;;;;;;35.93;17.33;;;;;;;;;;5052024;28;20205;-70
2022/03/26 02:13:50;;;;;;;34.73;18.67;;;;;;;;;;5050421;28;20600;-69
2022/03/26 02:16:15;;;;;;;41.13;19.47;;;;;;;;;;5051138;28;20646;-69
2022/03/26 02:18:40;;;;;;;31.67;18.63;;;;;;;;;;5051506;28;20189;-70
2022/03/26 02:21:05;;;;;;;38.33;19.60;;;;;;;;;;5049442;28;20201;-69
2022/03/26 02:23:31;;;;;;;33.53;18.87;;;;;;;;;;5049269;28;20248;-69
2022/03/26 02:25:56;;;;;;;40.37;19.20;;;;;;;;;;5051816;28;20178;-70
2022/03/26 02:28:22;;;;;;;37.10;19.97;;;;;;;;;;5050444;28;20198;-69
2022/03/26 02:30:47;;;;;;;35.30;19.57;;;;;;;;;;5052217;28;20177;-69
2022/03/26 02:33:12;;;;;;;41.97;21.87;;;;;;;;;;5052213;28;20607;-70
2022/03/26 02:35:37;;;;;;;35.57;21.13;;;;;;;;;;5049747;28;20174;-70
2022/03/26 02:38:03;;;;;;;36.97;20.07;;;;;;;;;;5048035;28;20296;-69
2022/03/26 02:40:28;;;;;;;38.30;19.90;;;;;;;;;;5051884;28;20749;-70
2022/03/26 02:42:53;;;;;;;36.47;20.70;;;;;;;;;;5049539;28;20174;-70
2022/03/26 02:45:18;;;;;;;36.93;20.70;;;;;;;;;;5049343;28;20200;-70
2022/03/26 02:47:44;;;;;;;37.23;21.33;;;;;;;;;;5051184;28;20193;-70
2022/03/26 02:50:09;;;;;;;38.43;21.63;;;;;;;;;;5051154;28;20178;-70
2022/03/26 02:52:36;;;;;;;40.67;22.43;;;;;;;;;;5051428;28;20203;-70
2022/03/26 02:55:01;;;;;;;40.47;21.90;;;;;;;;;;5046713;28;20186;-70
2022/03/26 02:57:26;;;;;;;40.00;22.57;;;;;;;;;;5051275;28;20298;-70
2022/03/26 02:59:51;;;;;;;41.67;23.20;;;;;;;;;;5051415;28;20204;-69
2022/03/26 03:02:16;;;;;;;36.93;21.00;;;;;;;;;;5049574;28;20665;-69
2022/03/26 03:04:42;;;;;;;38.67;21.63;;;;;;;;;;5051281;28;20174;-70
2022/03/26 03:07:08;;;;;;;44.00;22.33;;;;;;;;;;5038995;28;20268;-70
2022/03/26 03:09:33;;;;;;;42.60;22.00;;;;;;;;;;5047003;28;20182;-70
2022/03/26 03:11:58;;;;;;;39.47;22.43;;;;;;;;;;5048601;28;20189;-69
2022/03/26 03:14:23;;;;;;;41.67;21.63;;;;;;;;;;5047958;28;20239;-70
2022/03/26 03:16:49;;;;;;;36.33;21.90;;;;;;;;;;5051634;28;20189;-70
2022/03/26 03:19:15;;;;;;;39.10;21.73;;;;;;;;;;5046752;28;20576;-70
2022/03/26 03:21:40;;;;;;;39.47;22.63;;;;;;;;;;5050098;28;20189;-70
2022/03/26 03:24:05;;;;;;;41.27;22.73;;;;;;;;;;5047756;28;20181;-69
2022/03/26 03:26:31;;;;;;;40.07;22.47;;;;;;;;;;5049017;28;20182;-69
2022/03/26 03:28:57;;;;;;;41.03;21.93;;;;;;;;;;5051963;28;20689;-70
2022/03/26 03:31:23;;;;;;;40.57;21.57;;;;;;;;;;5054702;28;20265;-70
2022/03/26 03:33:48;;;;;;;37.90;22.27;;;;;;;;;;5045819;28;20288;-70
2022/03/26 03:36:13;;;;;;;34.23;20.00;;;;;;;;;;5049691;28;20181;-70
2022/03/26 03:38:38;;;;;;;37.83;20.63;;;;;;;;;;5048285;28;20216;-70
2022/03/26 03:41:04;;;;;;;41.00;21.80;;;;;;;;;;5049687;28;20227;-70
2022/03/26 03:43:29;;;;;;;42.30;19.83;;;;;;;;;;5045557;28;20181;-69
2022/03/26 03:45:54;;;;;;;39.10;21.37;;;;;;;;;;5049639;28;20178;-70
2022/03/26 03:48:19;;;;;;;38.37;21.03;;;;;;;;;;5050844;28;20202;-70
2022/03/26 03:50:45;;;;;;;37.63;21.43;;;;;;;;;;5049195;28;20234;-70
2022/03/26 03:53:10;;;;;;;36.70;22.10;;;;;;;;;;5051450;28;20261;-70
2022/03/26 03:55:35;;;;;;;39.93;21.27;;;;;;;;;;5048461;28;20666;-70
2022/03/26 03:58:01;;;;;;;39.80;21.93;;;;;;;;;;5051578;28;20208;-70
2022/03/26 04:00:27;;;;;;;39.40;22.33;;;;;;;;;;5048968;28;20248;-70
2022/03/26 04:02:53;;;;;;;42.50;22.57;;;;;;;;;;5048957;28;20673;-70
2022/03/26 04:05:18;;;;;;;44.10;22.67;;;;;;;;;;5050149;28;20707;-70
2022/03/26 04:07:44;;;;;;;38.87;21.20;;;;;;;;;;5040303;28;20292;-69
2022/03/26 04:10:09;;;;;;;42.27;23.47;;;;;;;;;;5042769;28;20185;-70
2022/03/26 04:12:38;;;;;;;38.47;23.67;;;;;;;;;;5049038;28;20601;-70
2022/03/26 04:15:05;;;;;;;37.77;22.63;;;;;;;;;;5047723;28;20541;-70
2022/03/26 04:17:30;;;;;;;44.10;24.57;;;;;;;;;;5044574;28;20197;-69
2022/03/26 04:19:56;;;;;;;45.37;24.17;;;;;;;;;;5048830;28;20251;-70
2022/03/26 04:22:21;;;;;;;51.77;25.97;;;;;;;;;;5050447;28;20178;-70
2022/03/26 04:24:46;;;;;;;48.90;26.13;;;;;;;;;;5047295;28;20551;-69
2022/03/26 04:27:11;;;;;;;49.37;25.40;;;;;;;;;;5045010;28;20197;-70
2022/03/26 04:29:36;;;;;;;48.03;25.87;;;;;;;;;;5049869;28;20542;-70
2022/03/26 04:32:02;;;;;;;49.33;26.37;;;;;;;;;;5043828;28;20252;-70
2022/03/26 04:34:27;;;;;;;52.27;26.33;;;;;;;;;;5049379;28;20212;-70
2022/03/26 04:36:52;;;;;;;51.20;26.33;;;;;;;;;;5048240;28;20263;-69
2022/03/26 04:39:17;;;;;;;51.80;28.27;;;;;;;;;;5049409;28;20234;-70
2022/03/26 04:41:42;;;;;;;51.00;27.43;;;;;;;;;;5048880;28;20250;-70
2022/03/26 04:44:08;;;;;;;53.40;28.30;;;;;;;;;;5044272;28;20655;-70
2022/03/26 04:46:34;;;;;;;52.03;27.83;;;;;;;;;;5043602;28;20181;-70
2022/03/26 04:48:59;;;;;;;50.23;26.30;;;;;;;;;;5045368;28;20202;-69
2022/03/26 04:51:24;;;;;;;49.90;27.87;;;;;;;;;;5051237;28;20186;-70
2022/03/26 04:53:50;;;;;;;52.40;29.50;;;;;;;;;;5050691;28;20189;-70
2022/03/26 04:56:15;;;;;;;58.13;28.27;;;;;;;;;;5054031;28;20178;-69
2022/03/26 04:58:40;;;;;;;57.10;29.50;;;;;;;;;;5053918;28;20189;-69
2022/03/26 05:01:07;;;;;;;51.53;28.07;;;;;;;;;;5053902;28;20262;-70
2022/03/26 05:03:32;;;;;;;50.20;29.10;;;;;;;;;;5051568;28;20178;-70
2022/03/26 05:05:57;;;;;;;52.17;28.93;;;;;;;;;;5047454;28;20182;-70
2022/03/26 05:08:22;;;;;;;54.63;29.17;;;;;;;;;;5045530;28;20292;-70
2022/03/26 05:10:47;;;;;;;52.07;28.20;;;;;;;;;;5044016;28;20183;-69
2022/03/26 05:13:13;;;;;;;51.43;28.70;;;;;;;;;;5050992;28;20276;-70
2022/03/26 05:15:38;;;;;;;54.80;30.43;;;;;;;;;;5053442;28;20174;-70
2022/03/26 05:18:03;;;;;;;49.03;27.00;;;;;;;;;;5051550;28;20206;-70
2022/03/26 05:20:28;;;;;;;51.03;29.13;;;;;;;;;;5053805;28;20204;-70
2022/03/26 05:22:54;;;;;;;58.63;28.93;;;;;;;;;;5050826;28;20181;-69
2022/03/26 05:25:19;;;;;;;51.40;29.43;;;;;;;;;;5052065;28;20815;-70
2022/03/26 05:27:48;;;;;;;52.70;28.70;;;;;;;;;;5052600;28;20201;-70
2022/03/26 05:30:14;;;;;;;56.60;29.67;;;;;;;;;;5051949;28;20284;-70
2022/03/26 05:32:39;;;;;;;52.90;27.67;;;;;;;;;;5052106;28;20189;-69
2022/03/26 05:35:11;;;;;;;53.77;29.20;;;;;;;;;;5051696;28;20178;-70
2022/03/26 05:37:36;;;;;;;52.00;28.87;;;;;;;;;;5052938;28;20263;-69
2022/03/26 05:40:01;;;;;;;49.00;28.93;;;;;;;;;;5052932;28;20299;-69
2022/03/26 05:42:28;;;;;;;54.80;29.37;;;;;;;;;;5052425;28;20284;-70
2022/03/26 05:44:53;;;;;;;53.20;30.43;;;;;;;;;;5049922;28;20276;-69
2022/03/26 05:47:18;;;;;;;53.33;27.53;;;;;;;;;;5052546;28;20202;-70
2022/03/26 05:49:43;;;;;;;51.77;29.93;;;;;;;;;;5045987;28;20283;-70
2022/03/26 05:52:09;;;;;;;60.60;31.17;;;;;;;;;;5052983;28;20189;-70
2022/03/26 05:54:34;;;;;;;54.90;30.47;;;;;;;;;;5051665;28;20189;-70
2022/03/26 05:56:59;;;;;;;53.87;28.93;;;;;;;;;;5047067;28;20213;-69
2022/03/26 05:59:24;;;;;;;52.47;31.73;;;;;;;;;;5050599;28;20202;-70
2022/03/26 06:01:50;;;;;;;53.83;30.47;;;;;;;;;;5036443;28;20598;-70
2022/03/26 06:04:16;;;;;;;52.60;28.47;;;;;;;;;;5043578;28;20601;-69
2022/03/26 06:06:41;;;;;;;52.83;29.70;;;;;;;;;;5045359;28;20173;-70
2022/03/26 06:09:07;;;;;;;53.90;28.13;;;;;;;;;;5044261;28;20178;-70
2022/03/26 06:11:32;;;;;;;53.00;29.50;;;;;;;;;;5052092;28;20169;-70
2022/03/26 06:13:57;;;;;;;54.37;30.07;;;;;;;;;;5052822;28;20655;-70
2022/03/26 06:16:23;;;;;;;55.67;29.90;;;;;;;;;;5041160;28;20190;-71
2022/03/26 06:18:48;;;;;;;55.87;32.03;;;;;;;;;;5041344;28;20205;-69
2022/03/26 06:21:13;;;;;;;52.87;31.27;;;;;;;;;;5051117;28;20210;-71
2022/03/26 06:23:39;;;;;;;56.97;30.43;;;;;;;;;;5050999;28;20174;-70
2022/03/26 06:26:04;;;;;;;53.97;29.13;;;;;;;;;;5048374;28;20216;-69
2022/03/26 06:28:29;;;;;;;56.53;32.67;;;;;;;;;;5051180;28;20232;-68
2022/03/26 06:30:54;;;;;;;51.33;29.93;;;;;;;;;;5046791;28;20190;-70
2022/03/26 06:33:22;;;;;;;54.67;29.47;;;;;;;;;;5050177;28;20178;-70
2022/03/26 06:35:47;;;;;;;58.23;32.20;;;;;;;;;;5048010;28;20209;-70
2022/03/26 06:38:12;;;;;;;52.17;29.97;;;;;;;;;;5049050;28;20299;-69
2022/03/26 06:40:38;;;;;;;49.40;29.53;;;;;;;;;;5052210;28;20227;-70
2022/03/26 06:43:04;;;;;;;51.23;31.60;;;;;;;;;;5050896;28;20651;-70
2022/03/26 06:45:29;;;;;;;52.17;30.43;;;;;;;;;;5045509;28;20188;-70
2022/03/26 06:47:54;;;;;;;49.87;30.30;;;;;;;;;;5048208;28;20197;-70
2022/03/26 06:50:20;;;;;;;53.53;29.80;;;;;;;;;;5050028;28;20224;-70
2022/03/26 06:52:45;;;;;;;50.40;28.90;;;;;;;;;;5051022;28;20178;-70
2022/03/26 06:55:10;;;;;;;47.70;29.13;;;;;;;;;;5047327;28;20174;-71
2022/03/26 06:57:36;;;;;;;52.83;29.07;;;;;;;;;;5048575;28;20225;-70
2022/03/26 07:00:01;;;;;;;49.17;28.67;;;;;;;;;;5046818;28;20292;-71
2022/03/26 07:02:27;;;;;;;47.00;28.77;;;;;;;;;;5047088;28;20607;-71
2022/03/26 07:04:52;;;;;;;49.83;28.83;;;;;;;;;;5040339;28;20175;-71
2022/03/26 07:07:17;;;;;;;44.80;26.97;;;;;;;;;;5047009;28;20198;-70
2022/03/26 07:09:42;;;;;;;42.57;26.07;;;;;;;;;;5059477;28;20236;-69
2022/03/26 07:12:08;;;;;;;48.03;28.23;;;;;;;;;;5045327;28;20261;-69
2022/03/26 07:14:33;;;;;;;44.30;25.40;;;;;;;;;;5049047;28;20540;-71
2022/03/26 07:16:58;;;;;;;44.90;25.90;;;;;;;;;;5038197;28;20202;-70
2022/03/26 07:19:23;;;;;;;40.83;25.93;;;;;;;;;;5044546;28;20331;-71
2022/03/26 07:21:49;;;;;;;40.37;25.03;;;;;;;;;;5043851;28;20681;-71
2022/03/26 07:24:14;;;;;;;40.77;24.23;;;;;;;;;;5053207;28;20189;-69
2022/03/26 07:26:39;;;;;;;37.67;23.60;;;;;;;;;;5050271;28;20228;-71
2022/03/26 07:29:04;;;;;;;37.47;23.17;;;;;;;;;;5051953;28;20185;-70
2022/03/26 07:31:29;;;;;;;35.97;22.50;;;;;;;;;;5052079;28;20174;-69
2022/03/26 07:33:55;;;;;;;38.47;22.97;;;;;;;;;;5051705;28;20228;-69
2022/03/26 07:36:20;;;;;;;37.27;22.83;;;;;;;;;;5052005;28;20165;-72
2022/03/26 07:38:45;;;;;;;37.93;23.77;;;;;;;;;;5051979;28;20607;-69
2022/03/26 07:41:10;;;;;;;36.90;24.67;;;;;;;;;;5051629;28;20738;-70
2022/03/26 07:43:36;;;;;;;44.20;25.47;;;;;;;;;;5050654;28;20169;-69
2022/03/26 07:46:01;;;;;;;44.85;27.75;;;;;;;;;;5049045;28;20186;-69
2022/03/26 07:48:26;;;;;;;42.80;26.63;;;;;;;;;;5051618;28;20263;-70
2022/03/26 07:50:51;;;;;;;44.45;28.13;;;;;;;;;;5051432;28;20166;-70
2022/03/26 07:53:17;;;;;;;50.92;29.85;;;;;;;;;;5051807;28;20181;-70
2022/03/26 07:55:42;;;;;;;48.80;29.95;;;;;;;;;;5049986;28;20182;-69
2022/03/26 07:58:08;;;;;;;51.00;30.50;;;;;;;;;;5051583;28;20208;-69
2022/03/26 08:00:33;;;;;;;50.92;29.98;;;;;;;;;;5050878;28;20208;-69
2022/03/26 08:02:58;;;;;;;47.53;29.23;;;;;;;;;;5047099;28;20173;-70
2022/03/26 08:05:24;;;;;;;50.25;30.25;;;;;;;;;;5050969;28;20647;-70
2022/03/26 08:07:49;;;;;;;47.72;30.15;;;;;;;;;;5046898;28;20200;-68
2022/03/26 08:10:14;;;;;;;54.53;33.00;;;;;;;;;;5050574;28;20186;-70
2022/03/26 08:12:39;;;;;;;52.90;32.25;;;;;;;;;;5051411;28;20178;-70
2022/03/26 08:15:05;;;;;;;52.17;30.50;;;;;;;;;;5050924;28;20554;-70
2022/03/26 08:17:30;;;;;;;53.38;31.70;;;;;;;;;;5046517;28;20204;-70
2022/03/26 08:19:56;;;;;;;46.30;30.85;;;;;;;;;;5037691;28;20248;-70
2022/03/26 08:22:21;;;;;;;46.97;29.95;;;;;;;;;;5050315;28;20176;-70
2022/03/26 08:24:46;;;;;;;46.85;29.55;;;;;;;;;;5045917;28;20181;-70
2022/03/26 08:27:11;;;;;;;43.97;27.98;;;;;;;;;;5049995;28;20190;-69
2022/03/26 08:29:36;;;;;;;45.72;27.73;;;;;;;;;;5050507;28;20635;-69
2022/03/26 08:32:04;;;;;;;44.55;27.23;;;;;;;;;;5051266;28;20186;-68
2022/03/26 08:34:29;;;;;;;42.15;26.35;;;;;;;;;;5048028;28;20177;-69
2022/03/26 08:36:54;;;;;;;43.72;27.25;;;;;;;;;;5046909;28;20224;-69
2022/03/26 08:39:20;;;;;;;42.23;24.97;;;;;;;;;;5045263;28;20219;-69
2022/03/26 08:41:45;;;;;;;41.67;26.37;;;;;;;;;;5050820;28;20781;-68
2022/03/26 08:44:11;;;;;;;42.85;25.73;;;;;;;;;;5050235;28;20434;-68
2022/03/26 08:46:36;;;;;;;34.47;22.15;;;;;;;;;;5050913;28;20248;-68
2022/03/26 08:49:01;;;;;;;34.35;22.58;;;;;;;;;;5045442;28;20193;-68
2022/03/26 08:51:26;;;;;;;37.38;23.13;;;;;;;;;;5046633;28;20170;-68
2022/03/26 08:53:51;;;;;;;35.43;23.60;;;;;;;;;;5044603;28;20177;-68
2022/03/26 08:56:17;;;;;;;32.23;23.00;;;;;;;;;;5050699;28;20896;-68
2022/03/26 08:58:42;;;;;;;28.65;19.60;;;;;;;;;;5043896;28;20427;-68
2022/03/26 09:01:07;;;;;;;33.05;21.98;;;;;;;;;;5042596;28;20205;-68
2022/03/26 09:03:33;;;;;;;31.42;20.55;;;;;;;;;;5050965;28;20166;-68
2022/03/26 09:05:58;;;;;;;27.80;18.63;;;;;;;;;;5051877;28;20264;-68
2022/03/26 09:08:23;;;;;;;30.45;20.75;;;;;;;;;;5049859;28;20239;-68
2022/03/26 09:10:48;;;;;;;28.77;19.85;;;;;;;;;;5049818;28;20582;-68
2022/03/26 09:13:14;;;;;;;30.52;20.17;;;;;;;;;;5050706;28;20196;-68
2022/03/26 09:15:39;;;;;;;29.17;19.17;;;;;;;;;;5050512;28;20652;-68
2022/03/26 09:18:04;;;;;;;29.00;18.80;;;;;;;;;;5051688;28;20550;-67
2022/03/26 09:20:30;;;;;;;27.27;18.35;;;;;;;;;;5037620;28;20363;-68
2022/03/26 09:22:55;;;;;;;24.67;18.42;;;;;;;;;;5045273;28;20175;-67
2022/03/26 09:25:20;;;;;;;28.02;17.58;;;;;;;;;;5034276;28;20178;-68
2022/03/26 09:27:46;;;;;;;26.40;16.58;;;;;;;;;;5041776;28;20197;-68
2022/03/26 09:30:12;;;;;;;24.23;16.17;;;;;;;;;;5054229;28;20183;-68
2022/03/26 09:32:37;;;;;;;27.48;18.30;;;;;;;;;;5049958;28;20173;-67
2022/03/26 09:35:03;;;;;;;25.00;18.42;;;;;;;;;;5041452;28;20181;-68
2022/03/26 09:37:28;;;;;;;25.88;17.85;;;;;;;;;;5051618;28;20205;-67
2022/03/26 09:39:54;;;;;;;24.50;16.35;;;;;;;;;;5054670;28;20631;-68
2022/03/26 09:42:22;;;;;;;23.17;15.32;;;;;;;;;;5053427;28;20685;-67
2022/03/26 09:44:48;;;;;;;23.77;15.52;;;;;;;;;;5050542;28;20169;-68
2022/03/26 09:47:13;;;;;;;24.08;15.93;;;;;;;;;;5053167;28;20694;-67
2022/03/26 09:49:39;;;;;;;19.33;13.25;;;;;;;;;;5051351;28;20260;-67
2022/03/26 09:52:06;;;;;;;21.55;14.77;;;;;;;;;;5053545;28;20174;-68
2022/03/26 09:54:32;;;;;;;19.52;13.70;;;;;;;;;;5053105;28;20180;-68
2022/03/26 09:56:57;;;;;;;18.50;13.13;;;;;;;;;;5045615;28;20185;-67
2022/03/26 09:59:23;;;;;;;18.13;13.70;;;;;;;;;;5048582;28;20177;-68
2022/03/26 10:01:48;;;;;;;17.50;12.68;;;;;;;;;;5046366;28;20844;-68
2022/03/26 10:04:23;;;;;;;19.45;13.57;;;;;;;;;;5044151;28;20609;-67
2022/03/26 10:06:52;;;;;;;18.70;13.02;;;;;;;;;;5034808;28;20184;-68
2022/03/26 10:09:32;;;;;;;19.77;13.75;;;;;;;;;;5044637;28;20190;-67
2022/03/26 10:11:57;;;;;;;23.50;15.88;;;;;;;;;;5048491;28;20169;-68
2022/03/26 10:14:23;;;;;;;25.10;15.18;;;;;;;;;;5051745;28;20181;-68
2022/03/26 10:16:51;;;;;;;28.88;17.77;;;;;;;;;;5046854;28;20247;-68
2022/03/26 10:19:22;;;;;;;26.65;18.83;;;;;;;;;;5050051;28;20280;-68
2022/03/26 10:21:49;;;;;;;25.63;18.75;;;;;;;;;;5049661;28;20225;-68
2022/03/26 10:24:14;;;;;;;28.13;19.63;;;;;;;;;;5043895;28;20178;-68
2022/03/26 10:26:39;;;;;;;26.17;18.65;;;;;;;;;;5041028;28;20182;-68
2022/03/26 10:29:05;;;;;;;22.73;15.98;;;;;;;;;;5052786;28;20185;-68
2022/03/26 10:34:15;;;;;;;23.88;16.73;;;;;;;;;;5049256;28;20183;-68
2022/03/26 10:36:41;;;;;;;25.42;17.83;;;;;;;;;;5052929;28;20539;-68
2022/03/26 10:39:12;;;;;;;29.25;17.35;;;;;;;;;;5052344;28;20203;-68
2022/03/26 10:41:37;;;;;;;21.33;14.88;;;;;;;;;;5036824;28;20183;-67
2022/03/26 10:44:07;;;;;;;22.75;15.90;;;;;;;;;;5043639;28;20188;-68
2022/03/26 10:46:40;;;;;;;22.88;15.82;;;;;;;;;;5045839;28;20172;-67
2022/03/26 10:49:05;;;;;;;22.23;14.57;;;;;;;;;;5048807;28;20235;-68
2022/03/26 10:51:34;;;;;;;21.40;13.75;;;;;;;;;;5051963;28;20547;-68
2022/03/26 10:54:06;;;;;;;20.75;15.15;;;;;;;;;;5049396;28;20205;-67
2022/03/26 10:56:32;;;;;;;19.02;14.13;;;;;;;;;;5044937;28;20239;-68
2022/03/26 10:58:58;;;;;;;21.20;14.02;;;;;;;;;;5045504;28;20205;-67
2022/03/26 11:01:23;;;;;;;23.17;15.13;;;;;;;;;;5052168;28;20233;-67
2022/03/26 11:03:48;;;;;;;23.63;15.77;;;;;;;;;;5050310;28;20193;-67
2022/03/26 11:06:14;;;;;;;22.63;15.95;;;;;;;;;;5047967;28;20439;-66
2022/03/26 11:08:41;;;;;;;25.05;16.13;;;;;;;;;;5049527;28;20193;-68
2022/03/26 11:11:07;;;;;;;23.83;15.55;;;;;;;;;;5049527;28;20559;-67
2022/03/26 11:13:33;;;;;;;23.95;16.50;;;;;;;;;;5046939;28;20178;-67
2022/03/26 11:16:01;;;;;;;25.33;16.27;;;;;;;;;;5052506;28;20188;-67
2022/03/26 11:18:52;;;;;;;26.52;17.13;;;;;;;;;;5051154;28;20205;-67
2022/03/26 11:21:32;;;;;;;26.55;18.60;;;;;;;;;;5051990;28;20201;-67
2022/03/26 11:24:09;;;;;;;28.98;17.88;;;;;;;;;;5047655;28;20174;-67
2022/03/26 11:27:01;;;;;;;30.08;20.45;;;;;;;;;;5049314;28;20661;-67
2022/03/26 11:29:26;;;;;;;31.27;20.02;;;;;;;;;;5051347;28;20178;-67
2022/03/26 11:31:54;;;;;;;29.98;20.60;;;;;;;;;;5035348;28;20173;-67
2022/03/26 11:34:20;;;;;;;34.22;22.20;;;;;;;;;;5042559;28;20188;-67
2022/03/26 11:36:46;;;;;;;33.08;22.17;;;;;;;;;;5052821;28;20187;-67
2022/03/26 11:39:12;;;;;;;31.20;22.35;;;;;;;;;;5051567;28;20193;-67
2022/03/26 11:41:38;;;;;;;31.33;22.25;;;;;;;;;;5045609;28;20174;-67
2022/03/26 11:44:04;;;;;;;35.05;23.55;;;;;;;;;;5036894;28;20497;-68
2022/03/26 11:52:20;;;;;;;32.70;23.83;;;;;;;;;;5045525;28;20661;-68
2022/03/26 11:54:48;;;;;;;31.80;22.02;;;;;;;;;;5045489;28;20162;-67
2022/03/26 11:57:14;;;;;;;31.63;21.95;;;;;;;;;;5051546;28;20694;-68
2022/03/26 11:59:39;;;;;;;31.48;22.17;;;;;;;;;;5048483;28;20197;-68
2022/03/26 12:02:14;;;;;;;40.95;26.35;;;;;;;;;;5047821;28;20182;-67
2022/03/26 12:08:16;;;;;;;37.67;26.52;;;;;;;;;;5032673;28;20339;-68
2022/03/26 12:10:43;;;;;;;36.45;26.38;;;;;;;;;;5036816;28;20201;-67
2022/03/26 12:13:09;;;;;;;39.97;27.55;;;;;;;;;;5029135;28;20182;-68
2022/03/26 12:15:35;;;;;;;37.00;23.75;;;;;;;;;;5047444;28;20182;-68
2022/03/26 12:18:13;;;;;;;38.03;27.05;;;;;;;;;;5045804;28;20217;-68
2022/03/26 12:20:39;;;;;;;34.83;26.48;;;;;;;;;;5041945;28;20208;-67
2022/03/26 12:23:12;;;;;;;37.67;24.67;;;;;;;;;;5045428;28;20174;-67
2022/03/26 12:25:42;;;;;;;34.30;24.58;;;;;;;;;;5048080;28;20651;-67
2022/03/26 12:28:07;;;;;;;36.08;24.70;;;;;;;;;;5046039;28;20185;-68
2022/03/26 12:30:32;;;;;;;35.58;24.20;;;;;;;;;;5043297;28;20184;-68
2022/03/26 12:33:00;;;;;;;35.90;26.05;;;;;;;;;;5043475;28;20213;-67
2022/03/26 12:35:26;;;;;;;34.95;25.70;;;;;;;;;;5048525;28;20173;-67
2022/03/26 12:37:52;;;;;;;35.28;25.67;;;;;;;;;;5050774;28;20246;-67
2022/03/26 12:40:17;;;;;;;37.60;25.50;;;;;;;;;;5050551;28;20231;-68
2022/03/26 12:42:42;;;;;;;36.95;24.02;;;;;;;;;;5044781;28;20231;-67
2022/03/26 12:45:17;;;;;;;35.42;24.85;;;;;;;;;;5048386;28;20200;-68
2022/03/26 12:47:44;;;;;;;33.13;22.27;;;;;;;;;;5044169;28;20192;-67
2022/03/26 12:50:09;;;;;;;39.10;23.65;;;;;;;;;;5047621;28;20182;-67
2022/03/26 12:52:34;;;;;;;29.90;20.33;;;;;;;;;;5048536;28;20273;-68
2022/03/26 12:55:00;;;;;;;29.27;20.77;;;;;;;;;;5050182;28;20430;-68
2022/03/26 12:58:56;;;;;;;25.75;19.33;;;;;;;;;;5043515;28;20233;-68
2022/03/26 13:00:11;;;;;;;31.02;20.15;;;;;;;;;;5049911;28;20209;-68
2022/03/26 13:02:37;;;;;;;29.65;18.73;;;;;;;;;;5049784;28;20255;-68
2022/03/26 13:05:02;;;;;;;28.05;18.67;;;;;;;;;;5054264;28;20553;-68
2022/03/26 13:07:35;;;;;;;25.35;13.98;;;;;;;;;;5042527;28;20189;-68
2022/03/26 13:10:00;;;;;;;19.38;13.73;;;;;;;;;;5050273;28;20659;-68
2022/03/26 13:12:29;;;;;;;19.43;12.00;;;;;;;;;;5054315;28;20215;-68
2022/03/26 13:14:54;;;;;;;20.70;12.27;;;;;;;;;;5061067;28;20178;-69
2022/03/26 13:17:21;;;;;;;24.08;12.48;;;;;;;;;;5054418;28;20212;-68
2022/03/26 13:19:46;;;;;;;17.13;10.35;;;;;;;;;;5054046;28;20201;-68
2022/03/26 13:22:14;;;;;;;16.88;11.27;;;;;;;;;;5054338;28;20583;-68
2022/03/26 13:24:48;;;;;;;21.90;11.57;;;;;;;;;;5049452;28;20773;-68
2022/03/26 13:27:16;;;;;;;19.58;12.05;;;;;;;;;;5061349;28;20208;-68
2022/03/26 13:29:41;;;;;;;23.38;14.38;;;;;;;;;;5054038;28;20181;-68
2022/03/26 13:32:09;;;;;;;22.90;16.42;;;;;;;;;;5049607;28;20184;-68
2022/03/26 13:34:35;;;;;;;20.75;13.68;;;;;;;;;;5043590;28;20209;-68
2022/03/26 13:37:06;;;;;;;18.55;10.63;;;;;;;;;;5035850;28;20308;-68
2022/03/26 13:39:31;;;;;;;22.27;11.50;;;;;;;;;;5042076;28;20177;-68
2022/03/26 13:42:06;;;;;;;12.90;10.13;;;;;;;;;;5050341;28;20243;-68
2022/03/26 13:44:31;;;;;;;16.48;11.13;;;;;;;;;;5049980;28;20429;-68
2022/03/26 13:46:59;;;;;;;14.05;9.35;;;;;;;;;;5053883;28;20197;-68
2022/03/26 13:49:26;;;;;;;17.15;10.43;;;;;;;;;;5051477;28;20209;-68
2022/03/26 13:51:51;;;;;;;18.55;11.48;;;;;;;;;;5052562;28;20177;-68
2022/03/26 13:54:19;;;;;;;15.93;9.90;;;;;;;;;;5052588;28;20628;-68
2022/03/26 13:56:50;;;;;;;16.05;10.98;;;;;;;;;;5052504;28;20651;-68
2022/03/26 13:59:15;;;;;;;16.15;10.73;;;;;;;;;;5047628;28;20561;-68
2022/03/26 14:01:40;;;;;;;17.87;10.73;;;;;;;;;;5048542;28;20209;-68
2022/03/26 14:04:07;;;;;;;15.93;11.52;;;;;;;;;;5052019;28;20476;-69
2022/03/26 14:06:34;;;;;;;19.73;11.93;;;;;;;;;;5051653;28;20550;-68
2022/03/26 14:08:59;;;;;;;21.17;11.25;;;;;;;;;;5052446;28;20197;-67
2022/03/26 14:11:24;;;;;;;16.98;11.85;;;;;;;;;;5051678;28;20208;-69
2022/03/26 14:13:50;;;;;;;18.17;10.80;;;;;;;;;;5053068;28;20181;-69
2022/03/26 14:16:15;;;;;;;17.73;10.40;;;;;;;;;;5048512;28;20517;-68
2022/03/26 14:18:40;;;;;;;19.73;8.63;;;;;;;;;;5053294;28;20483;-68
2022/03/26 14:21:06;;;;;;;13.70;9.57;;;;;;;;;;5049581;28;20667;-68